Terminal Aerodrome Forecast
Issued by NWS

Current Version | Previous Version | Text Only | Print | Product List | Glossary Off
Versions: 1 2 3 4 5 6 7 8 9 10 11 12 13 14 15 16 17

765
FTUS41 KILN 061228 AAB
TAFLUK
TAF AMD
KLUK 061228Z 0612/0712 00000KT 4SM BR SCT250
     FM061400 23007KT P6SM SCT070
     FM062300 19003KT P6SM SCT060=

USA.gov is the U.S. government's official web portal to all federal, state and local government web resources and services.